sensor_id;sensor_type;location;lat;lon;timestamp;temperature;humidity
71142;DHT22;58808;59.366;17.970;2023-05-29T00:02:15;12.90;73.30
71142;DHT22;58808;59.366;17.970;2023-05-29T00:04:41;13.00;74.00
71142;DHT22;58808;59.366;17.970;2023-05-29T00:07:06;13.10;73.10
71142;DHT22;58808;59.366;17.970;2023-05-29T00:09:32;13.20;72.60
71142;DHT22;58808;59.366;17.970;2023-05-29T00:11:58;13.20;72.40
71142;DHT22;58808;59.366;17.970;2023-05-29T00:14:25;13.20;72.50
71142;DHT22;58808;59.366;17.970;2023-05-29T00:16:51;13.10;73.10
71142;DHT22;58808;59.366;17.970;2023-05-29T00:19:17;13.00;73.20
71142;DHT22;58808;59.366;17.970;2023-05-29T00:21:45;13.00;73.90
71142;DHT22;58808;59.366;17.970;2023-05-29T00:24:14;12.90;74.90
71142;DHT22;58808;59.366;17.970;2023-05-29T00:26:40;12.80;76.50
71142;DHT22;58808;59.366;17.970;2023-05-29T00:29:06;12.70;75.50
71142;DHT22;58808;59.366;17.970;2023-05-29T00:31:32;12.80;75.50
71142;DHT22;58808;59.366;17.970;2023-05-29T00:33:57;12.90;75.10
71142;DHT22;58808;59.366;17.970;2023-05-29T00:36:24;12.60;75.90
71142;DHT22;58808;59.366;17.970;2023-05-29T00:38:50;12.60;76.40
71142;DHT22;58808;59.366;17.970;2023-05-29T00:41:16;12.70;76.90
71142;DHT22;58808;59.366;17.970;2023-05-29T00:43:43;12.60;77.50
71142;DHT22;58808;59.366;17.970;2023-05-29T00:46:09;12.60;77.70
71142;DHT22;58808;59.366;17.970;2023-05-29T00:48:38;12.60;77.60
71142;DHT22;58808;59.366;17.970;2023-05-29T00:51:04;12.70;77.80
71142;DHT22;58808;59.366;17.970;2023-05-29T00:53:30;12.30;79.30
71142;DHT22;58808;59.366;17.970;2023-05-29T00:55:58;12.40;79.60
71142;DHT22;58808;59.366;17.970;2023-05-29T00:58:25;12.50;79.70
71142;DHT22;58808;59.366;17.970;2023-05-29T01:00:51;12.50;80.00
71142;DHT22;58808;59.366;17.970;2023-05-29T01:03:18;12.50;79.80
71142;DHT22;58808;59.366;17.970;2023-05-29T01:05:44;12.50;79.70
71142;DHT22;58808;59.366;17.970;2023-05-29T01:08:12;12.60;79.80
71142;DHT22;58808;59.366;17.970;2023-05-29T01:10:38;12.60;79.90
71142;DHT22;58808;59.366;17.970;2023-05-29T01:13:19;12.60;79.70
71142;DHT22;58808;59.366;17.970;2023-05-29T01:25:01;12.60;79.70
71142;DHT22;58808;59.366;17.970;2023-05-29T01:27:30;12.40;79.90
71142;DHT22;58808;59.366;17.970;2023-05-29T01:29:58;12.30;80.20
71142;DHT22;58808;59.366;17.970;2023-05-29T01:32:24;12.20;79.80
71142;DHT22;58808;59.366;17.970;2023-05-29T01:34:51;12.20;80.40
71142;DHT22;58808;59.366;17.970;2023-05-29T01:37:17;12.00;80.30
71142;DHT22;58808;59.366;17.970;2023-05-29T01:39:42;11.90;80.40
71142;DHT22;58808;59.366;17.970;2023-05-29T01:42:09;11.80;79.80
71142;DHT22;58808;59.366;17.970;2023-05-29T01:44:36;11.70;79.30
71142;DHT22;58808;59.366;17.970;2023-05-29T01:47:03;11.60;77.40
71142;DHT22;58808;59.366;17.970;2023-05-29T01:49:31;11.50;77.30
71142;DHT22;58808;59.366;17.970;2023-05-29T01:51:58;11.50;76.50
71142;DHT22;58808;59.366;17.970;2023-05-29T01:54:23;11.50;75.60
71142;DHT22;58808;59.366;17.970;2023-05-29T01:56:49;11.50;75.40
71142;DHT22;58808;59.366;17.970;2023-05-29T01:59:16;11.40;74.60
71142;DHT22;58808;59.366;17.970;2023-05-29T02:01:42;11.40;74.70
71142;DHT22;58808;59.366;17.970;2023-05-29T02:04:08;11.40;74.20
71142;DHT22;58808;59.366;17.970;2023-05-29T02:06:34;11.30;73.80
71142;DHT22;58808;59.366;17.970;2023-05-29T02:08:59;11.30;74.00
71142;DHT22;58808;59.366;17.970;2023-05-29T02:11:25;11.20;74.60
71142;DHT22;58808;59.366;17.970;2023-05-29T02:13:54;11.10;74.20
71142;DHT22;58808;59.366;17.970;2023-05-29T02:16:19;11.10;74.30
71142;DHT22;58808;59.366;17.970;2023-05-29T02:18:46;11.10;73.90
71142;DHT22;58808;59.366;17.970;2023-05-29T02:21:12;11.00;74.20
71142;DHT22;58808;59.366;17.970;2023-05-29T02:23:38;11.00;74.70
71142;DHT22;58808;59.366;17.970;2023-05-29T02:26:04;10.90;75.00
71142;DHT22;58808;59.366;17.970;2023-05-29T02:28:30;10.90;75.50
71142;DHT22;58808;59.366;17.970;2023-05-29T02:30:56;10.90;76.10
71142;DHT22;58808;59.366;17.970;2023-05-29T02:33:22;10.80;76.30
71142;DHT22;58808;59.366;17.970;2023-05-29T02:35:48;10.80;77.20
71142;DHT22;58808;59.366;17.970;2023-05-29T02:38:13;10.90;76.50
71142;DHT22;58808;59.366;17.970;2023-05-29T02:40:39;10.90;76.60
71142;DHT22;58808;59.366;17.970;2023-05-29T02:43:06;10.80;76.60
71142;DHT22;58808;59.366;17.970;2023-05-29T02:45:32;10.80;76.50
71142;DHT22;58808;59.366;17.970;2023-05-29T02:47:58;10.80;76.90
71142;DHT22;58808;59.366;17.970;2023-05-29T02:50:24;10.70;77.10
71142;DHT22;58808;59.366;17.970;2023-05-29T02:52:50;10.70;77.30
71142;DHT22;58808;59.366;17.970;2023-05-29T02:55:16;10.70;77.40
71142;DHT22;58808;59.366;17.970;2023-05-29T02:57:42;10.70;77.50
71142;DHT22;58808;59.366;17.970;2023-05-29T03:00:08;10.70;77.70
71142;DHT22;58808;59.366;17.970;2023-05-29T03:02:34;10.60;77.40
71142;DHT22;58808;59.366;17.970;2023-05-29T03:05:01;10.60;77.50
71142;DHT22;58808;59.366;17.970;2023-05-29T03:07:26;10.60;77.60
71142;DHT22;58808;59.366;17.970;2023-05-29T03:09:53;10.60;77.90
71142;DHT22;58808;59.366;17.970;2023-05-29T03:12:19;10.70;78.00
71142;DHT22;58808;59.366;17.970;2023-05-29T03:14:45;10.70;77.60
71142;DHT22;58808;59.366;17.970;2023-05-29T03:17:13;10.70;77.60
71142;DHT22;58808;59.366;17.970;2023-05-29T03:19:38;10.70;77.20
71142;DHT22;58808;59.366;17.970;2023-05-29T03:22:04;10.70;77.30
71142;DHT22;58808;59.366;17.970;2023-05-29T03:24:30;10.60;77.00
71142;DHT22;58808;59.366;17.970;2023-05-29T03:26:55;10.60;77.10
71142;DHT22;58808;59.366;17.970;2023-05-29T03:29:21;10.60;77.40
71142;DHT22;58808;59.366;17.970;2023-05-29T03:31:47;10.60;77.20
71142;DHT22;58808;59.366;17.970;2023-05-29T03:34:13;10.70;77.20
71142;DHT22;58808;59.366;17.970;2023-05-29T03:36:39;10.70;77.20
71142;DHT22;58808;59.366;17.970;2023-05-29T03:39:04;10.60;76.40
71142;DHT22;58808;59.366;17.970;2023-05-29T03:41:30;10.60;76.90
71142;DHT22;58808;59.366;17.970;2023-05-29T03:43:56;10.60;76.90
71142;DHT22;58808;59.366;17.970;2023-05-29T03:46:22;10.50;76.50
71142;DHT22;58808;59.366;17.970;2023-05-29T03:48:47;10.50;76.20
71142;DHT22;58808;59.366;17.970;2023-05-29T03:51:13;10.40;75.60
71142;DHT22;58808;59.366;17.970;2023-05-29T03:53:39;10.40;76.20
71142;DHT22;58808;59.366;17.970;2023-05-29T03:56:05;10.40;76.70
71142;DHT22;58808;59.366;17.970;2023-05-29T03:58:31;10.40;76.30
71142;DHT22;58808;59.366;17.970;2023-05-29T04:00:56;10.40;76.00
71142;DHT22;58808;59.366;17.970;2023-05-29T04:03:22;10.40;75.80
71142;DHT22;58808;59.366;17.970;2023-05-29T04:05:48;10.30;76.10
71142;DHT22;58808;59.366;17.970;2023-05-29T04:08:14;10.20;76.40
71142;DHT22;58808;59.366;17.970;2023-05-29T04:10:40;10.20;77.00
71142;DHT22;58808;59.366;17.970;2023-05-29T04:13:06;10.20;77.50
71142;DHT22;58808;59.366;17.970;2023-05-29T04:15:32;10.30;77.80
71142;DHT22;58808;59.366;17.970;2023-05-29T04:17:59;10.40;78.20
71142;DHT22;58808;59.366;17.970;2023-05-29T04:20:25;10.40;78.30
71142;DHT22;58808;59.366;17.970;2023-05-29T04:22:51;10.40;78.60
71142;DHT22;58808;59.366;17.970;2023-05-29T04:25:17;10.50;78.80
71142;DHT22;58808;59.366;17.970;2023-05-29T04:27:44;10.50;79.00
71142;DHT22;58808;59.366;17.970;2023-05-29T04:30:14;10.50;79.80
71142;DHT22;58808;59.366;17.970;2023-05-29T04:32:40;10.50;79.70
71142;DHT22;58808;59.366;17.970;2023-05-29T04:35:06;10.50;80.00
71142;DHT22;58808;59.366;17.970;2023-05-29T04:37:32;10.60;80.00
71142;DHT22;58808;59.366;17.970;2023-05-29T04:40:06;10.60;80.70
71142;DHT22;58808;59.366;17.970;2023-05-29T04:42:36;10.70;80.40
71142;DHT22;58808;59.366;17.970;2023-05-29T04:45:03;10.60;80.20
71142;DHT22;58808;59.366;17.970;2023-05-29T04:47:31;10.60;80.70
71142;DHT22;58808;59.366;17.970;2023-05-29T04:50:02;10.70;80.70
71142;DHT22;58808;59.366;17.970;2023-05-29T04:52:28;10.70;81.00
71142;DHT22;58808;59.366;17.970;2023-05-29T04:54:57;10.70;80.90
71142;DHT22;58808;59.366;17.970;2023-05-29T04:57:23;10.70;80.50
71142;DHT22;58808;59.366;17.970;2023-05-29T04:59:48;10.70;79.90
71142;DHT22;58808;59.366;17.970;2023-05-29T05:02:14;10.70;80.60
71142;DHT22;58808;59.366;17.970;2023-05-29T05:04:40;10.70;80.20
71142;DHT22;58808;59.366;17.970;2023-05-29T05:07:06;10.70;79.80
71142;DHT22;58808;59.366;17.970;2023-05-29T05:09:32;10.70;79.90
71142;DHT22;58808;59.366;17.970;2023-05-29T05:11:57;10.70;79.70
71142;DHT22;58808;59.366;17.970;2023-05-29T05:14:23;10.80;79.70
71142;DHT22;58808;59.366;17.970;2023-05-29T05:16:49;10.80;80.50
71142;DHT22;58808;59.366;17.970;2023-05-29T05:19:15;10.80;79.50
71142;DHT22;58808;59.366;17.970;2023-05-29T05:21:40;10.80;79.60
71142;DHT22;58808;59.366;17.970;2023-05-29T05:24:06;10.90;80.40
71142;DHT22;58808;59.366;17.970;2023-05-29T05:26:32;10.90;80.20
71142;DHT22;58808;59.366;17.970;2023-05-29T05:28:58;10.90;80.40
71142;DHT22;58808;59.366;17.970;2023-05-29T05:31:24;10.90;78.60
71142;DHT22;58808;59.366;17.970;2023-05-29T05:33:49;10.90;77.80
71142;DHT22;58808;59.366;17.970;2023-05-29T05:36:15;10.80;78.20
71142;DHT22;58808;59.366;17.970;2023-05-29T05:38:41;10.90;78.30
71142;DHT22;58808;59.366;17.970;2023-05-29T05:41:07;10.90;77.70
71142;DHT22;58808;59.366;17.970;2023-05-29T05:43:32;10.90;77.70
71142;DHT22;58808;59.366;17.970;2023-05-29T05:45:58;10.90;78.40
71142;DHT22;58808;59.366;17.970;2023-05-29T05:48:24;11.00;77.30
71142;DHT22;58808;59.366;17.970;2023-05-29T05:50:50;10.90;76.70
71142;DHT22;58808;59.366;17.970;2023-05-29T05:53:16;10.90;77.50
71142;DHT22;58808;59.366;17.970;2023-05-29T05:55:42;10.90;77.80
71142;DHT22;58808;59.366;17.970;2023-05-29T05:58:08;10.90;76.50
71142;DHT22;58808;59.366;17.970;2023-05-29T06:00:34;10.90;77.20
71142;DHT22;58808;59.366;17.970;2023-05-29T06:02:59;10.90;77.90
71142;DHT22;58808;59.366;17.970;2023-05-29T06:05:28;10.90;77.20
71142;DHT22;58808;59.366;17.970;2023-05-29T06:07:53;11.00;76.40
71142;DHT22;58808;59.366;17.970;2023-05-29T06:10:19;11.00;76.60
71142;DHT22;58808;59.366;17.970;2023-05-29T06:12:45;11.10;77.30
71142;DHT22;58808;59.366;17.970;2023-05-29T06:15:10;11.10;76.80
71142;DHT22;58808;59.366;17.970;2023-05-29T06:17:36;11.20;76.40
71142;DHT22;58808;59.366;17.970;2023-05-29T06:20:02;11.20;77.20
71142;DHT22;58808;59.366;17.970;2023-05-29T06:22:30;11.30;76.50
71142;DHT22;58808;59.366;17.970;2023-05-29T06:24:56;11.30;75.60
71142;DHT22;58808;59.366;17.970;2023-05-29T06:27:22;11.40;75.90
71142;DHT22;58808;59.366;17.970;2023-05-29T06:29:51;11.40;75.20
71142;DHT22;58808;59.366;17.970;2023-05-29T06:32:17;11.30;74.30
71142;DHT22;58808;59.366;17.970;2023-05-29T06:34:42;11.40;75.10
71142;DHT22;58808;59.366;17.970;2023-05-29T06:37:08;11.40;75.00
71142;DHT22;58808;59.366;17.970;2023-05-29T06:39:34;11.40;74.80
71142;DHT22;58808;59.366;17.970;2023-05-29T06:42:00;11.50;75.80
71142;DHT22;58808;59.366;17.970;2023-05-29T06:44:27;11.50;74.70
71142;DHT22;58808;59.366;17.970;2023-05-29T06:46:52;11.60;73.70
71142;DHT22;58808;59.366;17.970;2023-05-29T06:49:18;11.70;73.90
71142;DHT22;58808;59.366;17.970;2023-05-29T06:51:44;11.70;74.10
71142;DHT22;58808;59.366;17.970;2023-05-29T06:54:10;11.80;74.00
71142;DHT22;58808;59.366;17.970;2023-05-29T06:56:36;11.80;74.70
71142;DHT22;58808;59.366;17.970;2023-05-29T06:59:01;12.00;73.40
71142;DHT22;58808;59.366;17.970;2023-05-29T07:01:27;12.00;71.70
71142;DHT22;58808;59.366;17.970;2023-05-29T07:03:53;12.10;70.80
71142;DHT22;58808;59.366;17.970;2023-05-29T07:06:19;12.20;71.20
71142;DHT22;58808;59.366;17.970;2023-05-29T07:08:45;12.20;68.00
71142;DHT22;58808;59.366;17.970;2023-05-29T07:11:11;12.30;70.00
71142;DHT22;58808;59.366;17.970;2023-05-29T07:13:36;12.40;69.50
71142;DHT22;58808;59.366;17.970;2023-05-29T07:16:02;12.60;67.80
71142;DHT22;58808;59.366;17.970;2023-05-29T07:18:28;12.60;66.30
71142;DHT22;58808;59.366;17.970;2023-05-29T07:20:56;12.70;64.40
71142;DHT22;58808;59.366;17.970;2023-05-29T07:23:22;12.70;65.40
71142;DHT22;58808;59.366;17.970;2023-05-29T07:25:48;12.80;66.00
71142;DHT22;58808;59.366;17.970;2023-05-29T07:28:13;12.90;65.70
71142;DHT22;58808;59.366;17.970;2023-05-29T07:30:39;13.10;65.50
71142;DHT22;58808;59.366;17.970;2023-05-29T07:33:05;13.30;65.20
71142;DHT22;58808;59.366;17.970;2023-05-29T07:35:31;13.60;65.00
71142;DHT22;58808;59.366;17.970;2023-05-29T07:37:59;13.80;64.40
71142;DHT22;58808;59.366;17.970;2023-05-29T07:40:25;14.10;63.50
71142;DHT22;58808;59.366;17.970;2023-05-29T07:42:51;14.20;61.70
71142;DHT22;58808;59.366;17.970;2023-05-29T07:45:16;14.30;58.40
71142;DHT22;58808;59.366;17.970;2023-05-29T07:47:42;14.30;58.70
71142;DHT22;58808;59.366;17.970;2023-05-29T07:50:08;14.50;57.60
71142;DHT22;58808;59.366;17.970;2023-05-29T07:52:34;14.70;57.90
71142;DHT22;58808;59.366;17.970;2023-05-29T07:55:00;14.60;55.20
71142;DHT22;58808;59.366;17.970;2023-05-29T07:57:27;14.40;55.70
71142;DHT22;58808;59.366;17.970;2023-05-29T07:59:53;14.40;56.10
71142;DHT22;58808;59.366;17.970;2023-05-29T08:02:19;14.60;55.00
71142;DHT22;58808;59.366;17.970;2023-05-29T08:04:46;14.80;54.70
71142;DHT22;58808;59.366;17.970;2023-05-29T08:07:12;14.90;53.60
71142;DHT22;58808;59.366;17.970;2023-05-29T08:09:38;15.10;53.70
71142;DHT22;58808;59.366;17.970;2023-05-29T08:12:04;15.20;53.50
71142;DHT22;58808;59.366;17.970;2023-05-29T08:14:31;15.00;52.60
71142;DHT22;58808;59.366;17.970;2023-05-29T08:16:56;15.00;52.60
71142;DHT22;58808;59.366;17.970;2023-05-29T08:19:23;15.20;51.60
71142;DHT22;58808;59.366;17.970;2023-05-29T08:21:49;15.30;50.80
71142;DHT22;58808;59.366;17.970;2023-05-29T08:24:14;15.40;51.60
71142;DHT22;58808;59.366;17.970;2023-05-29T08:26:40;15.50;51.60
71142;DHT22;58808;59.366;17.970;2023-05-29T08:29:06;15.70;51.10
71142;DHT22;58808;59.366;17.970;2023-05-29T08:31:32;15.80;52.80
71142;DHT22;58808;59.366;17.970;2023-05-29T08:33:58;15.90;52.10
71142;DHT22;58808;59.366;17.970;2023-05-29T08:36:25;15.90;50.20
71142;DHT22;58808;59.366;17.970;2023-05-29T08:38:51;16.10;50.90
71142;DHT22;58808;59.366;17.970;2023-05-29T08:41:25;16.10;48.40
71142;DHT22;58808;59.366;17.970;2023-05-29T08:43:53;15.80;49.40
71142;DHT22;58808;59.366;17.970;2023-05-29T08:46:19;15.80;50.80
71142;DHT22;58808;59.366;17.970;2023-05-29T08:48:48;15.80;48.90
71142;DHT22;58808;59.366;17.970;2023-05-29T08:51:19;15.80;48.40
71142;DHT22;58808;59.366;17.970;2023-05-29T08:53:46;15.80;48.20
71142;DHT22;58808;59.366;17.970;2023-05-29T08:56:12;15.70;48.10
71142;DHT22;58808;59.366;17.970;2023-05-29T08:58:38;15.60;48.40
71142;DHT22;58808;59.366;17.970;2023-05-29T09:01:05;15.60;48.40
71142;DHT22;58808;59.366;17.970;2023-05-29T09:03:30;15.50;48.80
71142;DHT22;58808;59.366;17.970;2023-05-29T09:05:59;15.70;50.50
71142;DHT22;58808;59.366;17.970;2023-05-29T09:08:25;16.00;49.50
71142;DHT22;58808;59.366;17.970;2023-05-29T09:10:52;16.20;48.60
71142;DHT22;58808;59.366;17.970;2023-05-29T09:13:18;16.20;47.40
71142;DHT22;58808;59.366;17.970;2023-05-29T09:15:44;15.90;47.30
71142;DHT22;58808;59.366;17.970;2023-05-29T09:18:09;15.70;47.80
71142;DHT22;58808;59.366;17.970;2023-05-29T09:20:36;15.60;47.70
71142;DHT22;58808;59.366;17.970;2023-05-29T09:23:04;15.60;48.20
71142;DHT22;58808;59.366;17.970;2023-05-29T09:25:32;15.70;48.10
71142;DHT22;58808;59.366;17.970;2023-05-29T09:27:59;15.80;47.20
71142;DHT22;58808;59.366;17.970;2023-05-29T09:30:45;15.80;48.10
71142;DHT22;58808;59.366;17.970;2023-05-29T09:33:15;15.90;47.80
71142;DHT22;58808;59.366;17.970;2023-05-29T09:35:43;16.00;46.40
71142;DHT22;58808;59.366;17.970;2023-05-29T09:38:11;16.10;46.80
71142;DHT22;58808;59.366;17.970;2023-05-29T09:40:38;16.10;46.00
71142;DHT22;58808;59.366;17.970;2023-05-29T09:43:13;16.00;46.90
71142;DHT22;58808;59.366;17.970;2023-05-29T09:45:39;15.90;46.90
71142;DHT22;58808;59.366;17.970;2023-05-29T09:48:16;15.80;47.40
71142;DHT22;58808;59.366;17.970;2023-05-29T09:50:43;15.80;47.90
71142;DHT22;58808;59.366;17.970;2023-05-29T09:53:25;15.80;48.30
71142;DHT22;58808;59.366;17.970;2023-05-29T09:55:55;16.10;49.50
71142;DHT22;58808;59.366;17.970;2023-05-29T09:58:22;16.30;47.50
71142;DHT22;58808;59.366;17.970;2023-05-29T10:00:49;16.40;48.20
71142;DHT22;58808;59.366;17.970;2023-05-29T10:03:15;16.40;47.40
71142;DHT22;58808;59.366;17.970;2023-05-29T10:05:47;16.40;49.30
71142;DHT22;58808;59.366;17.970;2023-05-29T10:08:14;16.70;48.30
71142;DHT22;58808;59.366;17.970;2023-05-29T10:10:49;16.80;46.60
71142;DHT22;58808;59.366;17.970;2023-05-29T10:13:20;16.80;46.20
71142;DHT22;58808;59.366;17.970;2023-05-29T10:15:50;16.80;47.60
71142;DHT22;58808;59.366;17.970;2023-05-29T10:20:50;16.80;46.40
71142;DHT22;58808;59.366;17.970;2023-05-29T10:23:22;16.80;45.80
71142;DHT22;58808;59.366;17.970;2023-05-29T10:25:53;16.70;45.90
71142;DHT22;58808;59.366;17.970;2023-05-29T10:28:20;16.70;45.10
71142;DHT22;58808;59.366;17.970;2023-05-29T10:33:33;16.60;45.30
71142;DHT22;58808;59.366;17.970;2023-05-29T10:36:12;16.70;45.10
71142;DHT22;58808;59.366;17.970;2023-05-29T10:38:41;16.90;44.30
71142;DHT22;58808;59.366;17.970;2023-05-29T10:44:00;17.20;44.70
71142;DHT22;58808;59.366;17.970;2023-05-29T10:49:20;17.20;43.90
71142;DHT22;58808;59.366;17.970;2023-05-29T10:51:46;17.20;44.60
71142;DHT22;58808;59.366;17.970;2023-05-29T10:54:13;17.20;44.00
71142;DHT22;58808;59.366;17.970;2023-05-29T10:56:40;17.10;44.10
71142;DHT22;58808;59.366;17.970;2023-05-29T10:59:08;16.90;44.10
71142;DHT22;58808;59.366;17.970;2023-05-29T11:01:34;16.90;43.90
71142;DHT22;58808;59.366;17.970;2023-05-29T11:06:48;17.00;43.90
71142;DHT22;58808;59.366;17.970;2023-05-29T11:09:32;17.10;44.40
71142;DHT22;58808;59.366;17.970;2023-05-29T11:14:47;17.50;42.60
71142;DHT22;58808;59.366;17.970;2023-05-29T11:17:46;17.50;42.60
71142;DHT22;58808;59.366;17.970;2023-05-29T11:25:28;17.60;44.00
71142;DHT22;58808;59.366;17.970;2023-05-29T11:27:54;17.80;43.00
71142;DHT22;58808;59.366;17.970;2023-05-29T11:30:20;17.90;42.20
71142;DHT22;58808;59.366;17.970;2023-05-29T11:32:47;17.80;43.20
71142;DHT22;58808;59.366;17.970;2023-05-29T11:35:14;17.80;41.90
71142;DHT22;58808;59.366;17.970;2023-05-29T11:37:42;17.80;42.40
71142;DHT22;58808;59.366;17.970;2023-05-29T11:40:10;17.90;42.60
71142;DHT22;58808;59.366;17.970;2023-05-29T11:42:41;18.10;42.00
71142;DHT22;58808;59.366;17.970;2023-05-29T11:45:20;18.00;42.20
71142;DHT22;58808;59.366;17.970;2023-05-29T11:47:58;18.20;44.60
71142;DHT22;58808;59.366;17.970;2023-05-29T11:50:26;18.50;43.60
71142;DHT22;58808;59.366;17.970;2023-05-29T11:52:52;18.70;40.70
71142;DHT22;58808;59.366;17.970;2023-05-29T11:55:19;18.40;41.20
71142;DHT22;58808;59.366;17.970;2023-05-29T11:57:47;17.90;42.10
71142;DHT22;58808;59.366;17.970;2023-05-29T12:00:17;17.70;42.70
71142;DHT22;58808;59.366;17.970;2023-05-29T12:02:44;17.90;43.10
71142;DHT22;58808;59.366;17.970;2023-05-29T12:05:14;18.10;42.60
71142;DHT22;58808;59.366;17.970;2023-05-29T12:07:51;18.10;41.80
71142;DHT22;58808;59.366;17.970;2023-05-29T12:10:19;18.20;41.70
71142;DHT22;58808;59.366;17.970;2023-05-29T12:12:57;18.30;42.10
71142;DHT22;58808;59.366;17.970;2023-05-29T12:15:23;18.50;42.20
71142;DHT22;58808;59.366;17.970;2023-05-29T12:17:50;18.90;43.60
71142;DHT22;58808;59.366;17.970;2023-05-29T12:20:18;19.30;41.00
71142;DHT22;58808;59.366;17.970;2023-05-29T12:22:45;19.30;40.60
71142;DHT22;58808;59.366;17.970;2023-05-29T12:25:12;19.40;41.40
71142;DHT22;58808;59.366;17.970;2023-05-29T12:27:42;19.70;39.60
71142;DHT22;58808;59.366;17.970;2023-05-29T12:30:09;19.60;39.80
71142;DHT22;58808;59.366;17.970;2023-05-29T12:32:39;19.70;39.00
71142;DHT22;58808;59.366;17.970;2023-05-29T12:35:19;19.70;39.10
71142;DHT22;58808;59.366;17.970;2023-05-29T12:40:20;19.50;38.70
71142;DHT22;58808;59.366;17.970;2023-05-29T12:42:47;19.40;38.20
71142;DHT22;58808;59.366;17.970;2023-05-29T12:45:13;19.00;38.90
71142;DHT22;58808;59.366;17.970;2023-05-29T12:48:06;18.80;39.00
71142;DHT22;58808;59.366;17.970;2023-05-29T12:50:37;18.80;40.50
71142;DHT22;58808;59.366;17.970;2023-05-29T12:53:07;18.90;41.40
71142;DHT22;58808;59.366;17.970;2023-05-29T12:55:35;19.10;41.60
71142;DHT22;58808;59.366;17.970;2023-05-29T12:58:13;19.30;39.20
71142;DHT22;58808;59.366;17.970;2023-05-29T13:00:41;19.00;38.60
71142;DHT22;58808;59.366;17.970;2023-05-29T13:03:08;18.90;39.60
71142;DHT22;58808;59.366;17.970;2023-05-29T13:05:34;18.50;40.00
71142;DHT22;58808;59.366;17.970;2023-05-29T13:08:00;18.40;41.30
71142;DHT22;58808;59.366;17.970;2023-05-29T13:10:27;18.60;41.10
71142;DHT22;58808;59.366;17.970;2023-05-29T13:12:56;18.80;41.80
71142;DHT22;58808;59.366;17.970;2023-05-29T13:15:25;18.90;40.20
71142;DHT22;58808;59.366;17.970;2023-05-29T13:17:52;19.00;39.10
71142;DHT22;58808;59.366;17.970;2023-05-29T13:20:18;18.70;39.40
71142;DHT22;58808;59.366;17.970;2023-05-29T13:22:46;18.60;40.00
71142;DHT22;58808;59.366;17.970;2023-05-29T13:25:13;18.60;40.10
71142;DHT22;58808;59.366;17.970;2023-05-29T13:27:43;18.70;40.30
71142;DHT22;58808;59.366;17.970;2023-05-29T13:30:10;19.00;39.00
71142;DHT22;58808;59.366;17.970;2023-05-29T13:32:37;19.10;39.50
71142;DHT22;58808;59.366;17.970;2023-05-29T13:35:03;19.20;39.20
71142;DHT22;58808;59.366;17.970;2023-05-29T13:37:29;19.50;39.60
71142;DHT22;58808;59.366;17.970;2023-05-29T13:39:55;19.60;39.10
71142;DHT22;58808;59.366;17.970;2023-05-29T13:42:21;19.60;38.30
71142;DHT22;58808;59.366;17.970;2023-05-29T13:44:47;19.80;39.30
71142;DHT22;58808;59.366;17.970;2023-05-29T13:47:14;20.20;38.90
71142;DHT22;58808;59.366;17.970;2023-05-29T13:49:42;20.40;39.30
71142;DHT22;58808;59.366;17.970;2023-05-29T13:52:08;20.80;38.10
71142;DHT22;58808;59.366;17.970;2023-05-29T13:54:34;20.80;36.30
71142;DHT22;58808;59.366;17.970;2023-05-29T13:57:02;20.60;35.90
71142;DHT22;58808;59.366;17.970;2023-05-29T13:59:29;20.40;37.70
71142;DHT22;58808;59.366;17.970;2023-05-29T14:01:55;20.60;38.00
71142;DHT22;58808;59.366;17.970;2023-05-29T14:04:20;20.50;38.80
71142;DHT22;58808;59.366;17.970;2023-05-29T14:06:46;20.20;38.90
71142;DHT22;58808;59.366;17.970;2023-05-29T14:09:12;19.80;37.50
71142;DHT22;58808;59.366;17.970;2023-05-29T14:11:38;19.50;37.20
71142;DHT22;58808;59.366;17.970;2023-05-29T14:14:04;19.20;37.90
71142;DHT22;58808;59.366;17.970;2023-05-29T14:16:31;18.70;39.30
71142;DHT22;58808;59.366;17.970;2023-05-29T14:18:57;18.60;39.50
71142;DHT22;58808;59.366;17.970;2023-05-29T14:21:23;18.40;39.00
71142;DHT22;58808;59.366;17.970;2023-05-29T14:23:49;18.40;40.30
71142;DHT22;58808;59.366;17.970;2023-05-29T14:26:14;18.40;38.00
71142;DHT22;58808;59.366;17.970;2023-05-29T14:28:40;18.60;37.50
71142;DHT22;58808;59.366;17.970;2023-05-29T14:31:06;18.50;36.50
71142;DHT22;58808;59.366;17.970;2023-05-29T14:33:32;18.30;35.80
71142;DHT22;58808;59.366;17.970;2023-05-29T14:35:58;18.20;35.90
71142;DHT22;58808;59.366;17.970;2023-05-29T14:38:24;18.30;35.90
71142;DHT22;58808;59.366;17.970;2023-05-29T14:40:51;18.50;38.50
71142;DHT22;58808;59.366;17.970;2023-05-29T14:43:17;18.60;32.90
71142;DHT22;58808;59.366;17.970;2023-05-29T14:45:43;18.40;31.40
71142;DHT22;58808;59.366;17.970;2023-05-29T14:48:08;18.20;32.40
71142;DHT22;58808;59.366;17.970;2023-05-29T14:50:35;18.20;33.60
71142;DHT22;58808;59.366;17.970;2023-05-29T14:53:01;18.40;32.70
71142;DHT22;58808;59.366;17.970;2023-05-29T14:55:26;18.50;30.50
71142;DHT22;58808;59.366;17.970;2023-05-29T14:57:52;18.60;31.40
71142;DHT22;58808;59.366;17.970;2023-05-29T15:00:18;18.80;28.90
71142;DHT22;58808;59.366;17.970;2023-05-29T15:02:44;18.80;27.00
71142;DHT22;58808;59.366;17.970;2023-05-29T15:05:10;18.70;27.30
71142;DHT22;58808;59.366;17.970;2023-05-29T15:07:35;18.80;27.90
71142;DHT22;58808;59.366;17.970;2023-05-29T15:10:04;18.90;27.60
71142;DHT22;58808;59.366;17.970;2023-05-29T15:12:31;19.10;27.60
71142;DHT22;58808;59.366;17.970;2023-05-29T15:14:58;19.00;29.30
71142;DHT22;58808;59.366;17.970;2023-05-29T15:17:23;19.00;27.80
71142;DHT22;58808;59.366;17.970;2023-05-29T15:19:49;19.00;26.30
71142;DHT22;58808;59.366;17.970;2023-05-29T15:22:15;18.90;25.80
71142;DHT22;58808;59.366;17.970;2023-05-29T15:24:40;18.70;26.20
71142;DHT22;58808;59.366;17.970;2023-05-29T15:27:07;18.50;26.90
71142;DHT22;58808;59.366;17.970;2023-05-29T15:29:34;18.20;29.10
71142;DHT22;58808;59.366;17.970;2023-05-29T15:32:00;17.80;36.80
71142;DHT22;58808;59.366;17.970;2023-05-29T15:34:26;17.70;33.10
71142;DHT22;58808;59.366;17.970;2023-05-29T15:36:52;17.60;37.80
71142;DHT22;58808;59.366;17.970;2023-05-29T15:39:18;17.50;39.50
71142;DHT22;58808;59.366;17.970;2023-05-29T15:41:44;17.60;41.60
71142;DHT22;58808;59.366;17.970;2023-05-29T15:44:10;17.60;42.50
71142;DHT22;58808;59.366;17.970;2023-05-29T15:46:35;17.70;40.70
71142;DHT22;58808;59.366;17.970;2023-05-29T15:49:01;17.60;41.60